createdAt,value
2019-03-23T00:00:20.756Z,12.95
2019-03-23T00:01:25.639Z,13.30
2019-03-23T00:02:31.457Z,12.55
2019-03-23T00:03:35.786Z,12.90
2019-03-23T00:04:40.330Z,12.05
2019-03-23T00:05:44.617Z,12.43
2019-03-23T00:06:48.794Z,11.75
2019-03-23T00:07:53.155Z,12.95
2019-03-23T00:08:57.326Z,12.35
2019-03-23T00:10:01.550Z,12.30
2019-03-23T00:11:05.783Z,12.03
2019-03-23T00:12:10.205Z,11.22
2019-03-23T00:13:14.541Z,11.95
2019-03-23T00:14:18.718Z,12.23
2019-03-23T00:15:23.902Z,12.55
2019-03-23T00:16:28.144Z,11.78
2019-03-23T00:17:32.339Z,12.35
2019-03-23T00:18:36.582Z,12.33
2019-03-23T00:19:40.879Z,12.40
2019-03-23T00:20:45.285Z,12.65
2019-03-23T00:21:49.485Z,13.15
2019-03-23T00:22:53.658Z,12.35
2019-03-23T00:23:57.841Z,12.30
2019-03-23T00:25:02.087Z,12.40
2019-03-23T00:26:06.362Z,11.80
2019-03-23T00:27:10.614Z,12.23
2019-03-23T00:28:16.426Z,12.30
2019-03-23T00:29:23.096Z,12.10
2019-03-23T00:30:27.250Z,12.07
2019-03-23T00:31:31.702Z,11.68
2019-03-23T00:32:36.901Z,11.97
2019-03-23T00:33:41.122Z,12.50
2019-03-23T00:34:45.253Z,11.95
2019-03-23T00:35:49.751Z,11.97
2019-03-23T00:36:55.093Z,12.00
2019-03-23T00:37:59.638Z,11.63
2019-03-23T00:39:05.843Z,12.15
2019-03-23T00:40:10.256Z,11.95
2019-03-23T00:41:17.361Z,11.48
2019-03-23T00:42:21.607Z,11.90
2019-03-23T00:43:25.980Z,11.90
2019-03-23T00:44:30.155Z,11.65
2019-03-23T00:45:34.339Z,11.83
2019-03-23T00:46:38.721Z,11.40
2019-03-23T00:47:42.894Z,11.40
2019-03-23T00:48:48.909Z,11.57
2019-03-23T00:49:53.178Z,11.05
2019-03-23T00:50:57.422Z,11.68
2019-03-23T00:52:01.603Z,11.68
2019-03-23T00:53:05.813Z,11.43
2019-03-23T00:54:10.166Z,11.75
2019-03-23T00:55:14.435Z,11.60
2019-03-23T00:56:18.610Z,11.20
2019-03-23T00:57:24.418Z,11.12
2019-03-23T00:58:28.704Z,11.50
2019-03-23T00:59:32.845Z,11.60
2019-03-23T01:00:37.090Z,12.07
2019-03-23T01:01:41.259Z,11.73
2019-03-23T01:02:45.524Z,11.65
2019-03-23T01:03:49.879Z,13.25
2019-03-23T01:04:54.060Z,12.93
2019-03-23T01:05:58.247Z,13.38
2019-03-23T01:07:02.495Z,13.28
2019-03-23T01:08:06.675Z,12.30
2019-03-23T01:09:10.990Z,13.05
2019-03-23T01:10:15.168Z,13.25
2019-03-23T01:11:19.347Z,12.90
2019-03-23T01:12:23.687Z,12.03
2019-03-23T01:13:27.873Z,12.00
2019-03-23T01:14:32.543Z,12.78
2019-03-23T01:15:37.084Z,12.55
2019-03-23T01:16:41.195Z,12.53
2019-03-23T01:17:46.997Z,13.68
2019-03-23T01:18:51.173Z,13.48
2019-03-23T01:19:55.388Z,13.55
2019-03-23T01:20:59.600Z,13.30
2019-03-23T01:22:03.787Z,13.32
2019-03-23T01:23:08.910Z,14.00
2019-03-23T01:24:13.090Z,13.53
2019-03-23T01:25:17.406Z,13.10
2019-03-23T01:26:21.592Z,13.30
2019-03-23T01:27:25.770Z,13.03
2019-03-23T01:28:30.334Z,13.88
2019-03-23T01:29:34.557Z,13.35
2019-03-23T01:30:38.767Z,12.98
2019-03-23T01:31:42.965Z,12.80
2019-03-23T01:32:47.144Z,12.85
2019-03-23T01:33:53.060Z,12.73
2019-03-23T01:34:57.266Z,13.25
2019-03-23T01:36:01.562Z,12.43
2019-03-23T01:37:05.734Z,12.90
2019-03-23T01:38:09.905Z,13.03
2019-03-23T01:39:14.078Z,12.88
2019-03-23T01:40:18.255Z,12.23
2019-03-23T01:41:24.098Z,13.28
2019-03-23T01:42:29.245Z,12.15
2019-03-23T01:43:33.425Z,12.70
2019-03-23T01:44:39.317Z,13.15
2019-03-23T01:45:43.532Z,12.00
2019-03-23T01:46:47.918Z,11.70
2019-03-23T01:47:52.184Z,12.30
2019-03-23T01:48:56.371Z,11.73
2019-03-23T01:50:00.602Z,12.15
2019-03-23T01:51:04.858Z,11.60
2019-03-23T01:52:09.454Z,12.20
2019-03-23T01:53:16.625Z,11.48
2019-03-23T01:54:21.714Z,12.20
2019-03-23T01:55:27.001Z,11.33
2019-03-23T01:56:31.247Z,12.05
2019-03-23T01:57:37.249Z,11.80
2019-03-23T01:58:41.698Z,11.65
2019-03-23T01:59:45.883Z,11.15
2019-03-23T02:00:50.186Z,11.22
2019-03-23T02:01:54.365Z,11.48
2019-03-23T02:02:58.870Z,11.60
2019-03-23T02:04:03.043Z,12.13
2019-03-23T02:05:08.848Z,11.45
2019-03-23T02:06:13.042Z,11.40
2019-03-23T02:07:17.205Z,11.55
2019-03-23T02:08:23.056Z,11.00
2019-03-23T02:09:27.229Z,11.57
2019-03-23T02:10:33.019Z,11.63
2019-03-23T02:11:37.345Z,12.50
2019-03-23T02:12:41.596Z,11.60
2019-03-23T02:13:47.175Z,11.50
2019-03-23T02:14:51.649Z,11.38
2019-03-23T02:15:56.150Z,11.93
2019-03-23T02:17:00.329Z,11.48
2019-03-23T02:18:06.402Z,12.80
2019-03-23T02:19:10.648Z,11.20
2019-03-23T02:20:14.901Z,12.18
2019-03-23T02:21:19.076Z,11.15
2019-03-23T02:22:23.659Z,11.48
2019-03-23T02:23:29.347Z,11.48
2019-03-23T02:24:33.939Z,12.03
2019-03-23T02:25:38.110Z,11.20
2019-03-23T02:26:42.285Z,11.95
2019-03-23T02:27:46.458Z,11.80
2019-03-23T02:28:50.702Z,11.88
2019-03-23T02:29:56.530Z,12.15
2019-03-23T02:31:02.353Z,10.88
2019-03-23T02:32:06.697Z,10.95
2019-03-23T02:33:10.900Z,11.53
2019-03-23T02:34:16.261Z,11.85
2019-03-23T02:35:20.717Z,11.83
2019-03-23T02:36:24.910Z,11.00
2019-03-23T02:37:29.088Z,11.33
2019-03-23T02:38:33.420Z,11.40
2019-03-23T02:39:37.604Z,11.73
2019-03-23T02:40:42.208Z,11.45
2019-03-23T02:41:46.392Z,12.40
2019-03-23T02:42:50.696Z,11.85
2019-03-23T02:43:54.870Z,11.50
2019-03-23T02:45:00.678Z,12.13
2019-03-23T02:46:04.855Z,11.05
2019-03-23T02:47:09.073Z,12.63
2019-03-23T02:48:13.241Z,11.90
2019-03-23T02:49:17.485Z,12.05
2019-03-23T02:50:22.634Z,11.70
2019-03-23T02:51:26.810Z,12.20
2019-03-23T02:52:30.991Z,12.58
2019-03-23T02:53:36.431Z,11.93
2019-03-23T02:54:40.607Z,11.88
2019-03-23T02:55:44.955Z,11.83
2019-03-23T02:56:49.125Z,10.95
2019-03-23T02:57:54.690Z,11.48
2019-03-23T02:58:58.909Z,12.28
2019-03-23T03:00:04.223Z,11.45
2019-03-23T03:01:10.022Z,11.78
2019-03-23T03:02:17.313Z,12.37
2019-03-23T03:03:21.850Z,12.03
2019-03-23T03:04:29.476Z,12.18
2019-03-23T03:05:35.870Z,12.10
2019-03-23T03:06:40.042Z,11.73
2019-03-23T03:07:44.361Z,11.60
2019-03-23T03:08:49.637Z,12.00
2019-03-23T03:09:53.976Z,11.70
2019-03-23T03:10:58.140Z,12.37
2019-03-23T03:12:02.311Z,11.63
2019-03-23T03:13:06.826Z,12.50
2019-03-23T03:14:11.071Z,11.55
2019-03-23T03:15:15.278Z,12.75
2019-03-23T03:16:19.524Z,11.55
2019-03-23T03:17:23.701Z,12.33
2019-03-23T03:18:27.877Z,12.58
2019-03-23T03:19:32.136Z,11.97
2019-03-23T03:20:38.061Z,12.60
2019-03-23T03:21:42.262Z,12.53
2019-03-23T03:22:46.437Z,12.05
2019-03-23T03:23:50.719Z,12.95
2019-03-23T03:24:55.188Z,12.60
2019-03-23T03:26:02.413Z,13.13
2019-03-23T03:27:06.923Z,12.40
2019-03-23T03:28:11.099Z,11.43
2019-03-23T03:29:15.279Z,12.13
2019-03-23T03:30:19.462Z,13.03
2019-03-23T03:31:25.406Z,12.25
2019-03-23T03:32:29.578Z,12.90
2019-03-23T03:33:34.818Z,11.65
2019-03-23T03:34:38.996Z,11.68
2019-03-23T03:35:43.166Z,12.85
2019-03-23T03:36:47.388Z,12.88
2019-03-23T03:37:56.960Z,12.75
2019-03-23T03:38:57.565Z,12.53
2019-03-23T03:40:01.773Z,13.03
2019-03-23T03:41:08.697Z,12.15
2019-03-23T03:42:12.956Z,12.28
2019-03-23T03:43:17.204Z,12.55
2019-03-23T03:44:23.065Z,12.58
2019-03-23T03:45:28.009Z,11.68
2019-03-23T03:46:32.184Z,12.63
2019-03-23T03:47:41.078Z,12.45
2019-03-23T03:48:44.077Z,12.47
2019-03-23T03:49:48.316Z,12.10
2019-03-23T03:50:52.443Z,12.75
2019-03-23T03:51:56.619Z,12.40
2019-03-23T03:53:00.817Z,12.78
2019-03-23T03:54:05.124Z,13.32
2019-03-23T03:55:09.331Z,12.68
2019-03-23T03:56:13.574Z,11.97
2019-03-23T03:57:19.164Z,12.82
2019-03-23T03:58:23.404Z,11.83
2019-03-23T03:59:28.161Z,12.18
2019-03-23T04:00:32.372Z,12.65
2019-03-23T04:01:36.617Z,13.45
2019-03-23T04:02:40.825Z,12.47
2019-03-23T04:03:46.087Z,12.80
2019-03-23T04:04:52.199Z,12.75
2019-03-23T04:05:56.411Z,12.15
2019-03-23T04:07:00.582Z,12.90
2019-03-23T04:08:11.300Z,13.08
2019-03-23T04:09:10.641Z,12.80
2019-03-23T04:10:14.876Z,13.15
2019-03-23T04:11:19.108Z,13.53
2019-03-23T04:12:23.335Z,12.55
2019-03-23T04:13:27.514Z,13.75
2019-03-23T04:14:31.732Z,13.22
2019-03-23T04:15:35.916Z,12.75
2019-03-23T04:16:40.124Z,12.93
2019-03-23T04:17:44.399Z,13.60
2019-03-23T04:18:48.602Z,12.73
2019-03-23T04:19:52.779Z,13.55
2019-03-23T04:20:56.956Z,13.10
2019-03-23T04:22:01.462Z,13.43
2019-03-23T04:23:05.649Z,13.35
2019-03-23T04:24:09.831Z,15.63
2019-03-23T04:25:14.003Z,15.68
2019-03-23T04:26:18.184Z,15.30
2019-03-23T04:27:22.728Z,14.95
2019-03-23T04:28:26.872Z,13.72
2019-03-23T04:29:31.051Z,13.50
2019-03-23T04:30:35.399Z,13.93
2019-03-23T04:31:39.577Z,14.20
2019-03-23T04:32:43.847Z,13.58
2019-03-23T04:33:48.043Z,13.95
2019-03-23T04:34:52.250Z,13.10
2019-03-23T04:35:56.445Z,13.10
2019-03-23T04:37:01.687Z,12.75
2019-03-23T04:38:06.011Z,12.30
2019-03-23T04:39:10.503Z,12.98
2019-03-23T04:40:14.762Z,12.25
2019-03-23T04:41:18.956Z,12.43
2019-03-23T04:42:23.142Z,12.82
2019-03-23T04:43:27.430Z,13.03
2019-03-23T04:44:31.608Z,12.73
2019-03-23T04:45:35.784Z,13.25
2019-03-23T04:46:39.963Z,12.75
2019-03-23T04:47:44.146Z,12.73
2019-03-23T04:48:48.749Z,13.20
2019-03-23T04:49:52.993Z,12.75
2019-03-23T04:50:57.172Z,12.23
2019-03-23T04:52:01.350Z,13.08
2019-03-23T04:53:05.543Z,13.00
2019-03-23T04:54:09.741Z,12.45
2019-03-23T04:55:14.085Z,13.20
2019-03-23T04:56:18.305Z,12.53
2019-03-23T04:57:22.549Z,13.10
2019-03-23T04:58:26.775Z,11.75
2019-03-23T04:59:31.027Z,12.75
2019-03-23T05:00:35.434Z,12.43
2019-03-23T05:01:39.664Z,12.82
2019-03-23T05:02:43.860Z,12.55
2019-03-23T05:03:48.013Z,13.60
2019-03-23T05:04:52.245Z,12.50
2019-03-23T05:05:56.397Z,12.68
2019-03-23T05:07:00.576Z,12.10
2019-03-23T05:08:04.817Z,13.43
2019-03-23T05:09:09.466Z,12.85
2019-03-23T05:10:13.731Z,12.80
2019-03-23T05:11:17.955Z,13.50
2019-03-23T05:12:22.200Z,13.08
2019-03-23T05:13:26.482Z,11.85
2019-03-23T05:14:30.687Z,13.53
2019-03-23T05:15:37.220Z,12.65
2019-03-23T05:16:41.610Z,12.18
2019-03-23T05:17:45.785Z,12.85
2019-03-23T05:18:51.577Z,12.80
2019-03-23T05:19:57.316Z,12.80
2019-03-23T05:21:01.499Z,12.60
2019-03-23T05:22:05.819Z,13.15
2019-03-23T05:23:09.994Z,12.28
2019-03-23T05:24:14.240Z,12.88
2019-03-23T05:25:21.674Z,13.28
2019-03-23T05:26:25.944Z,13.20
2019-03-23T05:27:30.097Z,14.20
2019-03-23T05:28:34.385Z,13.75
2019-03-23T05:29:38.551Z,13.38
2019-03-23T05:30:42.814Z,13.20
2019-03-23T05:31:47.203Z,12.85
2019-03-23T05:32:53.013Z,12.85
2019-03-23T05:33:57.567Z,13.13
2019-03-23T05:35:01.829Z,12.85
2019-03-23T05:36:06.083Z,13.32
2019-03-23T05:37:11.065Z,14.07
2019-03-23T05:38:15.239Z,12.18
2019-03-23T05:39:19.566Z,13.55
2019-03-23T05:40:23.800Z,14.03
2019-03-23T05:41:30.815Z,13.55
2019-03-23T05:42:34.669Z,12.75
2019-03-23T05:43:38.854Z,13.18
2019-03-23T05:44:43.030Z,14.18
2019-03-23T05:45:47.547Z,14.05
2019-03-23T05:46:54.176Z,13.65
2019-03-23T05:47:57.652Z,13.78
2019-03-23T05:49:01.820Z,13.43
2019-03-23T05:50:07.339Z,13.22
2019-03-23T05:51:11.620Z,13.43
2019-03-23T05:52:15.822Z,13.83
2019-03-23T05:53:21.066Z,13.62
2019-03-23T05:54:25.276Z,13.30
2019-03-23T05:55:30.389Z,14.00
2019-03-23T05:56:36.198Z,13.08
2019-03-23T05:57:40.398Z,13.00
2019-03-23T05:58:44.574Z,12.40
2019-03-23T05:59:48.860Z,12.68
2019-03-23T06:00:52.988Z,12.82
2019-03-23T06:01:57.231Z,13.15
2019-03-23T06:03:01.634Z,13.32
2019-03-23T06:04:07.423Z,13.55
2019-03-23T06:05:12.542Z,13.53
2019-03-23T06:06:16.716Z,13.05
2019-03-23T06:07:22.589Z,13.35
2019-03-23T06:08:26.859Z,13.15
2019-03-23T06:09:31.039Z,13.18
2019-03-23T06:10:35.259Z,14.45
2019-03-23T06:11:39.502Z,14.05
2019-03-23T06:12:43.673Z,14.33
2019-03-23T06:13:48.006Z,14.43
2019-03-23T06:14:52.321Z,15.72
2019-03-23T06:15:56.705Z,13.53
2019-03-23T06:17:00.941Z,14.55
2019-03-23T06:18:06.751Z,14.60
2019-03-23T06:19:11.049Z,14.63
2019-03-23T06:20:16.017Z,14.30
2019-03-23T06:21:20.331Z,14.53
2019-03-23T06:22:24.609Z,14.73
2019-03-23T06:23:28.778Z,15.40
2019-03-23T06:24:33.017Z,15.10
2019-03-23T06:25:37.372Z,15.35
2019-03-23T06:26:41.734Z,15.30
2019-03-23T06:27:45.954Z,15.38
2019-03-23T06:28:51.827Z,15.53
2019-03-23T06:29:56.061Z,14.80
2019-03-23T06:31:00.274Z,15.45
2019-03-23T06:32:04.571Z,14.80
2019-03-23T06:33:08.750Z,15.63
2019-03-23T06:34:12.998Z,14.68
2019-03-23T06:35:17.300Z,15.50
2019-03-23T06:36:21.661Z,14.78
2019-03-23T06:37:26.192Z,15.20
2019-03-23T06:38:30.366Z,14.65
2019-03-23T06:39:34.681Z,15.18
2019-03-23T06:40:38.941Z,14.73
2019-03-23T06:41:43.142Z,15.03
2019-03-23T06:42:47.432Z,14.58
2019-03-23T06:43:51.619Z,15.20
2019-03-23T06:44:56.000Z,14.53
2019-03-23T06:46:00.174Z,14.33
2019-03-23T06:47:04.562Z,15.83
2019-03-23T06:48:08.721Z,15.08
2019-03-23T06:49:12.891Z,14.98
2019-03-23T06:50:17.069Z,15.93
2019-03-23T06:51:21.252Z,14.83
2019-03-23T06:52:25.470Z,15.43
2019-03-23T06:53:29.642Z,15.38
2019-03-23T06:54:33.815Z,15.90
2019-03-23T06:55:38.003Z,15.05
2019-03-23T06:56:42.197Z,15.88
2019-03-23T06:57:46.370Z,15.68
2019-03-23T06:58:50.628Z,15.60
2019-03-23T06:59:54.788Z,15.70
2019-03-23T07:00:59.017Z,15.68
2019-03-23T07:02:04.005Z,15.85
2019-03-23T07:03:08.211Z,15.05
2019-03-23T07:04:12.383Z,15.43
2019-03-23T07:05:16.562Z,15.60
2019-03-23T07:06:20.809Z,15.10
2019-03-23T07:07:24.988Z,15.50
2019-03-23T07:08:32.083Z,16.00
2019-03-23T07:09:35.420Z,16.57
2019-03-23T07:10:40.565Z,16.30
2019-03-23T07:11:44.738Z,16.52
2019-03-23T07:12:48.995Z,15.88
2019-03-23T07:13:53.229Z,15.83
2019-03-23T07:14:57.404Z,15.38
2019-03-23T07:16:01.607Z,15.93
2019-03-23T07:17:05.948Z,16.12
2019-03-23T07:18:10.126Z,15.65
2019-03-23T07:19:14.411Z,15.80
2019-03-23T07:20:18.919Z,15.28
2019-03-23T07:21:23.098Z,17.07
2019-03-23T07:22:27.343Z,16.45
2019-03-23T07:23:31.523Z,15.55
2019-03-23T07:24:35.867Z,16.32
2019-03-23T07:25:40.045Z,16.15
2019-03-23T07:26:44.297Z,16.10
2019-03-23T07:27:48.506Z,15.83
2019-03-23T07:28:52.693Z,16.45
2019-03-23T07:29:56.968Z,16.60
2019-03-23T07:31:01.145Z,15.78
2019-03-23T07:32:06.252Z,16.65
2019-03-23T07:33:10.570Z,16.15
2019-03-23T07:34:14.753Z,16.10
2019-03-23T07:35:18.996Z,16.75
2019-03-23T07:36:23.120Z,17.25
2019-03-23T07:37:27.374Z,15.90
2019-03-23T07:38:31.594Z,17.35
2019-03-23T07:39:37.408Z,17.73
2019-03-23T07:40:41.710Z,17.05
2019-03-23T07:41:47.502Z,16.90
2019-03-23T07:42:51.754Z,17.52
2019-03-23T07:43:55.991Z,17.27
2019-03-23T07:45:00.339Z,18.07
2019-03-23T07:46:06.224Z,18.40
2019-03-23T07:47:10.453Z,18.27
2019-03-23T07:48:14.591Z,18.17
2019-03-23T07:49:18.791Z,17.05
2019-03-23T07:50:23.039Z,18.12
2019-03-23T07:51:27.291Z,17.87
2019-03-23T07:52:31.536Z,18.05
2019-03-23T07:53:38.316Z,18.62
2019-03-23T07:54:42.516Z,17.67
2019-03-23T07:55:46.787Z,18.45
2019-03-23T07:56:51.034Z,18.23
2019-03-23T07:57:55.240Z,18.75
2019-03-23T07:58:59.595Z,18.73
2019-03-23T08:00:07.214Z,19.87
2019-03-23T08:01:11.416Z,19.85
2019-03-23T08:02:15.597Z,19.98
2019-03-23T08:03:19.834Z,20.27
2019-03-23T08:04:23.993Z,19.98
2019-03-23T08:05:28.245Z,19.90
2019-03-23T08:06:32.429Z,19.65
2019-03-23T08:07:36.723Z,20.60
2019-03-23T08:08:41.972Z,19.82
2019-03-23T08:09:46.217Z,20.00
2019-03-23T08:10:51.407Z,19.80
2019-03-23T08:11:55.595Z,20.12
2019-03-23T08:13:00.199Z,19.95
2019-03-23T08:14:04.369Z,20.52
2019-03-23T08:15:13.742Z,21.00
2019-03-23T08:16:17.895Z,20.02
2019-03-23T08:17:22.078Z,20.92
2019-03-23T08:18:26.292Z,21.20
2019-03-23T08:19:30.480Z,19.80
2019-03-23T08:20:34.841Z,22.02
2019-03-23T08:21:39.011Z,20.80
2019-03-23T08:22:44.842Z,21.77
2019-03-23T08:23:49.085Z,21.68
2019-03-23T08:24:53.224Z,22.30
2019-03-23T08:25:57.407Z,21.87
2019-03-23T08:27:01.656Z,21.23
2019-03-23T08:28:06.431Z,22.50
2019-03-23T08:29:10.642Z,23.05
2019-03-23T08:30:14.826Z,23.77
2019-03-23T08:31:19.004Z,23.60
2019-03-23T08:32:23.252Z,23.22
2019-03-23T08:33:27.513Z,25.75
2019-03-23T08:34:31.717Z,24.65
2019-03-23T08:35:35.962Z,24.10
2019-03-23T08:36:40.139Z,26.10
2019-03-23T08:37:44.390Z,25.82
2019-03-23T08:38:48.579Z,26.80
2019-03-23T08:39:52.807Z,26.65
2019-03-23T08:40:57.383Z,26.12
2019-03-23T08:42:01.568Z,27.00
2019-03-23T08:43:05.914Z,29.12
2019-03-23T08:44:10.099Z,31.97
2019-03-23T08:45:14.305Z,32.20
2019-03-23T08:46:18.481Z,28.83
2019-03-23T08:47:22.660Z,30.65
2019-03-23T08:48:27.043Z,30.95
2019-03-23T08:49:31.293Z,31.02
2019-03-23T08:50:35.537Z,31.97
2019-03-23T08:51:39.724Z,31.48
2019-03-23T08:52:43.976Z,31.45
2019-03-23T08:53:48.727Z,31.87
2019-03-23T08:54:52.912Z,31.80
2019-03-23T08:55:57.158Z,30.75
2019-03-23T08:57:01.412Z,31.57
2019-03-23T08:58:05.668Z,29.57
2019-03-23T08:59:09.882Z,28.95
2019-03-23T09:00:14.127Z,29.15
2019-03-23T09:01:18.374Z,31.30
2019-03-23T09:02:22.628Z,33.15
2019-03-23T09:03:28.439Z,34.05
2019-03-23T09:04:32.880Z,36.50
2019-03-23T09:05:37.129Z,36.68
2019-03-23T09:06:41.522Z,36.20
2019-03-23T09:07:47.190Z,35.10
2019-03-23T09:08:51.412Z,38.05
2019-03-23T09:09:59.411Z,36.00
2019-03-23T09:11:01.564Z,32.13
2019-03-23T09:12:05.744Z,36.10
2019-03-23T09:13:10.991Z,36.85
2019-03-23T09:14:15.184Z,36.63
2019-03-23T09:15:20.453Z,39.48
2019-03-23T09:16:24.564Z,41.53
2019-03-23T09:17:29.154Z,41.18
2019-03-23T09:18:35.144Z,41.83
2019-03-23T09:19:39.334Z,42.55
2019-03-23T09:20:43.513Z,41.70
2019-03-23T09:21:49.534Z,41.68
2019-03-23T09:22:53.808Z,41.18
2019-03-23T09:23:58.128Z,41.42
2019-03-23T09:25:02.480Z,42.40
2019-03-23T09:26:06.727Z,42.33
2019-03-23T09:27:12.639Z,42.20
2019-03-23T09:28:21.976Z,40.08
2019-03-23T10:02:31.126Z,32.90
2019-03-23T10:03:36.142Z,29.63
2019-03-23T10:04:40.325Z,33.85
2019-03-23T10:05:44.604Z,29.10
2019-03-23T10:06:48.786Z,31.57
2019-03-23T10:07:52.974Z,31.17
2019-03-23T10:08:58.124Z,31.97
2019-03-23T10:10:02.430Z,32.75
2019-03-23T10:11:07.676Z,28.52
2019-03-23T10:12:11.855Z,32.50
2019-03-23T10:13:16.031Z,32.80
2019-03-23T10:14:20.294Z,30.67
2019-03-23T10:15:24.475Z,30.50
2019-03-23T10:16:28.771Z,31.15
2019-03-23T10:17:33.023Z,30.60
2019-03-23T10:18:37.275Z,31.87
2019-03-23T10:19:41.450Z,31.33
2019-03-23T10:20:45.629Z,31.95
2019-03-23T10:21:49.935Z,32.33
2019-03-23T10:22:54.182Z,31.10
2019-03-23T10:23:58.368Z,32.75
2019-03-23T10:25:02.547Z,31.73
2019-03-23T10:26:07.803Z,32.98
2019-03-23T10:27:12.102Z,32.97
2019-03-23T10:28:16.313Z,31.93
2019-03-23T10:29:21.431Z,33.97
2019-03-23T10:30:25.659Z,31.48
2019-03-23T10:31:29.842Z,33.92
2019-03-23T10:32:34.109Z,33.20
2019-03-23T10:33:38.294Z,32.55
2019-03-23T10:34:42.482Z,29.60
2019-03-23T10:35:46.703Z,33.13
2019-03-23T10:36:50.958Z,32.87
2019-03-23T10:37:55.187Z,33.42
2019-03-23T10:38:59.464Z,31.47
2019-03-23T10:40:07.484Z,34.30
2019-03-23T10:41:11.811Z,32.57
2019-03-23T10:42:16.332Z,32.63
2019-03-23T10:43:20.620Z,31.30
2019-03-23T10:44:24.862Z,30.85
2019-03-23T10:45:29.048Z,31.55
2019-03-23T10:46:33.325Z,29.40
2019-03-23T10:47:37.719Z,31.10
2019-03-23T10:48:41.873Z,31.55
2019-03-23T10:49:46.047Z,30.88
2019-03-23T10:50:50.320Z,32.15
2019-03-23T10:51:54.534Z,32.15
2019-03-23T10:52:58.732Z,30.97
2019-03-23T10:54:04.129Z,32.38
2019-03-23T10:55:09.337Z,32.15
2019-03-23T10:56:13.613Z,33.63
2019-03-23T10:57:17.882Z,34.05
2019-03-23T10:58:22.122Z,34.00
2019-03-23T10:59:27.975Z,33.80
2019-03-23T11:00:32.285Z,33.73
2019-03-23T11:01:36.461Z,33.50
2019-03-23T11:02:40.639Z,32.28
2019-03-23T11:03:44.821Z,30.40
2019-03-23T11:04:49.122Z,32.38
2019-03-23T11:05:53.306Z,32.25
2019-03-23T11:06:57.557Z,33.00
2019-03-23T11:08:01.754Z,31.65
2019-03-23T11:09:06.698Z,31.27
2019-03-23T11:10:13.040Z,30.20
2019-03-23T11:11:18.262Z,32.17
2019-03-23T11:12:22.441Z,30.70
2019-03-23T11:13:26.624Z,32.58
2019-03-23T11:14:30.799Z,31.75
2019-03-23T11:15:35.006Z,29.95
2019-03-23T11:16:39.181Z,31.52
2019-03-23T11:17:43.430Z,32.50
2019-03-23T11:18:47.617Z,33.55
2019-03-23T11:19:51.801Z,34.80
2019-03-23T11:20:56.000Z,31.25
2019-03-23T11:22:00.183Z,33.18
2019-03-23T11:23:04.882Z,32.78
2019-03-23T11:24:09.062Z,32.93
2019-03-23T11:25:13.315Z,33.25
2019-03-23T11:26:17.525Z,35.00
2019-03-23T11:27:21.773Z,33.10
2019-03-23T11:28:26.023Z,35.38
2019-03-23T11:29:30.205Z,33.35
2019-03-23T11:30:34.491Z,32.00
2019-03-23T11:31:38.708Z,35.58
2019-03-23T11:32:42.889Z,33.55
2019-03-23T11:33:47.163Z,30.25
2019-03-23T11:34:51.511Z,33.60
2019-03-23T11:35:58.016Z,34.30
2019-03-23T11:37:01.689Z,33.92
2019-03-23T11:38:05.948Z,35.88
2019-03-23T11:39:10.197Z,33.40
2019-03-23T11:40:14.379Z,34.20
2019-03-23T11:41:18.559Z,34.47
2019-03-23T11:42:22.766Z,34.13
2019-03-23T11:43:26.945Z,35.00
2019-03-23T11:44:31.135Z,33.48
2019-03-23T11:45:35.325Z,33.98
2019-03-23T11:46:39.508Z,33.67
2019-03-23T11:47:43.720Z,32.10
2019-03-23T11:48:47.902Z,34.40
2019-03-23T11:49:52.088Z,34.45
2019-03-23T11:50:56.273Z,35.78
2019-03-23T11:52:00.464Z,35.45
2019-03-23T11:53:04.750Z,34.20
2019-03-23T11:54:08.930Z,34.75
2019-03-23T11:55:14.191Z,35.77
2019-03-23T11:56:18.362Z,35.53
2019-03-23T11:57:22.549Z,33.73
2019-03-23T11:58:26.755Z,32.93
2019-03-23T11:59:30.950Z,33.05
2019-03-23T12:00:35.192Z,33.40
2019-03-23T12:01:39.469Z,33.42
2019-03-23T12:02:44.708Z,34.63
2019-03-23T12:03:48.965Z,34.53
2019-03-23T12:04:53.262Z,34.87
2019-03-23T12:05:57.416Z,31.68
2019-03-23T12:07:01.681Z,32.83
2019-03-23T12:08:05.868Z,32.15
2019-03-23T12:09:10.141Z,33.13
2019-03-23T12:10:14.294Z,34.73
2019-03-23T12:11:18.478Z,35.37
2019-03-23T12:12:22.658Z,34.90
2019-03-23T12:13:26.910Z,35.25
2019-03-23T12:14:31.148Z,32.00
2019-03-23T12:15:35.314Z,32.83
2019-03-23T12:16:39.502Z,31.80
2019-03-23T12:17:43.755Z,30.82
2019-03-23T12:18:47.937Z,32.58
2019-03-23T12:19:52.143Z,31.40
2019-03-23T12:20:56.445Z,31.87
2019-03-23T12:22:00.692Z,32.37
2019-03-23T12:23:04.950Z,31.65
2019-03-23T12:24:09.122Z,31.62
2019-03-23T12:25:13.301Z,32.67
2019-03-23T12:26:17.506Z,33.57
2019-03-23T12:27:21.690Z,32.93
2019-03-23T12:28:25.883Z,18.33
2019-03-23T12:29:30.063Z,28.67
2019-03-23T12:30:34.294Z,33.92
2019-03-23T12:31:38.475Z,33.40
2019-03-23T12:32:42.661Z,34.43
2019-03-23T12:33:47.805Z,34.83
2019-03-23T12:34:52.053Z,33.08
2019-03-23T12:35:56.274Z,31.15
2019-03-23T12:37:00.459Z,33.88
2019-03-23T12:38:04.705Z,32.53
2019-03-23T12:39:08.886Z,33.08
2019-03-23T12:40:13.332Z,32.40
2019-03-23T12:41:22.947Z,33.60
2019-03-23T12:42:23.487Z,31.52
2019-03-23T12:43:27.671Z,30.32
2019-03-23T12:44:31.879Z,31.77
2019-03-23T12:45:36.058Z,31.73
2019-03-23T12:46:47.906Z,32.70
2019-03-23T12:47:46.143Z,32.10
2019-03-23T12:48:50.322Z,32.10
2019-03-23T12:49:54.510Z,33.50
2019-03-23T12:50:58.705Z,31.33
2019-03-23T12:52:03.257Z,33.08
2019-03-23T12:53:07.414Z,33.13
2019-03-23T12:54:11.597Z,34.67
2019-03-23T12:55:15.770Z,32.63
2019-03-23T12:56:19.951Z,33.03
2019-03-23T12:57:24.187Z,32.03
2019-03-23T12:58:28.370Z,32.38
2019-03-23T12:59:32.549Z,33.80
2019-03-23T13:00:36.867Z,31.80
2019-03-23T13:01:41.047Z,32.23
2019-03-23T13:02:45.342Z,32.38
2019-03-23T13:03:49.551Z,32.35
2019-03-23T13:04:53.730Z,32.58
2019-03-23T13:05:57.982Z,32.45
2019-03-23T13:07:02.256Z,32.08
2019-03-23T13:08:06.554Z,31.90
2019-03-23T13:09:10.752Z,32.07
2019-03-23T13:10:15.102Z,32.10
2019-03-23T13:11:23.260Z,32.60
2019-03-23T13:12:25.246Z,33.58
2019-03-23T13:13:29.471Z,30.97
2019-03-23T13:14:33.721Z,34.60
2019-03-23T13:15:37.903Z,35.77
2019-03-23T13:16:42.082Z,33.33
2019-03-23T13:17:46.278Z,34.95
2019-03-23T13:18:50.826Z,34.70
2019-03-23T13:19:55.052Z,38.73
2019-03-23T13:20:59.250Z,35.88
2019-03-23T13:22:04.432Z,35.50
2019-03-23T13:23:08.615Z,33.92
2019-03-23T13:24:12.817Z,36.63
2019-03-23T13:25:17.122Z,35.55
2019-03-23T13:26:21.324Z,36.75
2019-03-23T13:27:25.503Z,35.40
2019-03-23T13:28:29.684Z,33.80
2019-03-23T13:29:33.866Z,35.10
2019-03-23T13:30:38.131Z,35.03
2019-03-23T13:31:42.675Z,35.17
2019-03-23T13:32:46.882Z,35.17
2019-03-23T13:33:51.062Z,34.20
2019-03-23T13:34:55.332Z,37.65
2019-03-23T13:35:59.543Z,34.53
2019-03-23T13:37:04.296Z,31.66
2019-03-23T13:38:08.483Z,34.10
2019-03-23T13:39:12.730Z,33.53
2019-03-23T13:40:16.969Z,31.13
2019-03-23T13:41:22.640Z,34.27
2019-03-23T13:42:26.785Z,30.32
2019-03-23T13:43:31.006Z,33.63
2019-03-23T13:44:35.191Z,33.10
2019-03-23T13:45:42.719Z,35.70
2019-03-23T13:46:45.252Z,37.40
2019-03-23T13:47:49.498Z,35.58
2019-03-23T13:48:53.681Z,36.50
2019-03-23T13:49:57.918Z,33.63
2019-03-23T13:51:02.184Z,32.55
2019-03-23T13:52:06.325Z,33.88
2019-03-23T13:53:10.580Z,34.90
2019-03-23T13:54:14.765Z,34.80
2019-03-23T13:55:26.622Z,33.00
2019-03-23T13:56:30.801Z,32.67
2019-03-23T13:57:34.986Z,30.57
2019-03-23T13:58:39.423Z,33.47
2019-03-23T13:59:43.607Z,34.30
2019-03-23T14:00:47.858Z,34.70
2019-03-23T14:01:51.999Z,35.70
2019-03-23T14:02:56.187Z,33.67
2019-03-23T14:04:00.409Z,34.70
2019-03-23T14:05:12.176Z,32.98
2019-03-23T14:06:11.538Z,34.63
2019-03-23T14:07:15.719Z,34.87
2019-03-23T14:08:19.915Z,35.00
2019-03-23T14:09:24.122Z,34.98
2019-03-23T14:10:28.291Z,35.63
2019-03-23T14:11:32.471Z,33.58
2019-03-23T14:12:36.647Z,31.82
2019-03-23T14:13:40.859Z,34.43
2019-03-23T14:14:45.038Z,32.63
2019-03-23T14:15:49.221Z,35.92
2019-03-23T14:16:53.398Z,35.73
2019-03-23T14:17:57.586Z,34.18
2019-03-23T14:19:01.879Z,35.17
2019-03-23T14:20:06.526Z,34.53
2019-03-23T14:21:11.034Z,34.80
2019-03-23T14:22:15.215Z,32.07
2019-03-23T14:23:19.405Z,33.28